createdAt,value
2023-01-18T00:03:39.310Z,80.90
2023-01-18T00:06:09.850Z,79.20
2023-01-18T00:21:29.702Z,80.80
2023-01-18T00:24:00.633Z,79.80
2023-01-18T00:26:28.896Z,78.90
2023-01-18T00:28:57.480Z,79.70
2023-01-18T00:31:25.726Z,79.00
2023-01-18T00:33:54.243Z,78.90
2023-01-18T00:36:22.073Z,78.70
2023-01-18T00:38:54.115Z,78.50
2023-01-18T00:41:22.778Z,80.10
2023-01-18T00:43:51.687Z,79.60
2023-01-18T00:46:24.802Z,79.30
2023-01-18T01:30:27.176Z,79.80
2023-01-18T01:32:56.150Z,78.80
2023-01-18T01:35:24.605Z,78.50
2023-01-18T01:37:52.646Z,78.90
2023-01-18T01:40:20.474Z,78.60
2023-01-18T01:42:49.075Z,79.40
2023-01-18T01:45:19.642Z,79.00
2023-01-18T01:47:48.357Z,79.30
2023-01-18T01:50:26.157Z,79.40
2023-01-18T01:52:56.722Z,79.90
2023-01-18T01:55:32.773Z,81.00
2023-01-18T01:58:11.317Z,80.60
2023-01-18T02:00:39.701Z,81.00
2023-01-18T02:03:19.959Z,80.80
2023-01-18T02:05:55.761Z,81.80
2023-01-18T02:08:27.257Z,81.20
2023-01-18T02:11:03.898Z,80.60
2023-01-18T02:13:31.989Z,80.00
2023-01-18T02:22:45.761Z,82.00
2023-01-18T02:25:59.005Z,82.20
2023-01-18T02:31:54.634Z,82.30
2023-01-18T02:38:49.859Z,82.60
2023-01-18T02:44:52.883Z,82.80
2023-01-18T02:47:25.320Z,82.80
2023-01-18T02:49:57.715Z,83.00
2023-01-18T02:59:49.291Z,83.60
2023-01-18T03:07:02.646Z,83.30
2023-01-18T03:09:57.348Z,83.40
2023-01-18T03:15:45.883Z,83.90
2023-01-18T03:18:19.561Z,83.20
2023-01-18T03:20:53.513Z,82.60
2023-01-18T03:23:40.523Z,83.40
2023-01-18T03:26:11.999Z,82.50
2023-01-18T03:29:18.567Z,84.30
2023-01-18T03:32:30.755Z,84.20
2023-01-18T03:35:14.328Z,83.90
2023-01-18T03:37:45.893Z,83.70
2023-01-18T03:46:32.331Z,83.50
2023-01-18T03:49:00.868Z,83.20
2023-01-18T03:51:47.643Z,82.90
2023-01-18T04:26:54.803Z,84.10
2023-01-18T05:37:28.103Z,82.80
2023-01-18T05:39:55.997Z,82.40
2023-01-18T05:42:23.447Z,82.30
2023-01-18T05:44:53.175Z,81.90
2023-01-18T05:47:20.559Z,81.80
2023-01-18T05:49:47.911Z,81.20
2023-01-18T05:52:15.341Z,81.50
2023-01-18T05:54:43.009Z,81.90
2023-01-18T05:57:10.898Z,81.80
2023-01-18T05:59:38.381Z,81.00
2023-01-18T06:02:07.976Z,80.60
2023-01-18T06:04:36.935Z,80.00
2023-01-18T06:07:29.890Z,80.20
2023-01-18T06:09:57.545Z,81.00
2023-01-18T06:12:25.276Z,80.20
2023-01-18T06:14:52.834Z,80.80
2023-01-18T06:17:20.377Z,79.80
2023-01-18T06:19:47.933Z,79.50
2023-01-18T06:22:15.871Z,78.90
2023-01-18T06:29:40.798Z,79.50
2023-01-18T06:32:08.576Z,78.90
2023-01-18T06:34:36.806Z,79.00
2023-01-18T06:37:04.841Z,79.00
2023-01-18T06:39:32.295Z,79.30
2023-01-18T06:42:04.198Z,78.80
2023-01-18T06:44:33.431Z,78.60
2023-01-18T06:50:12.987Z,77.80
2023-01-18T06:52:47.128Z,78.10
2023-01-18T06:55:16.380Z,77.90
2023-01-18T07:03:31.772Z,76.70
2023-01-18T07:19:51.846Z,78.40
2023-01-18T07:22:47.507Z,78.00
2023-01-18T07:25:18.752Z,79.10
2023-01-18T07:27:48.647Z,78.40
2023-01-18T07:30:38.422Z,78.20
2023-01-18T07:33:07.126Z,78.30
2023-01-18T07:35:34.547Z,78.40
2023-01-18T07:38:02.611Z,78.40
2023-01-18T07:40:30.727Z,78.30
2023-01-18T07:49:15.660Z,79.00
2023-01-18T07:52:45.262Z,78.40
2023-01-18T08:19:36.679Z,78.40
2023-01-18T08:22:04.005Z,78.70
2023-01-18T08:24:31.358Z,77.90
2023-01-18T08:27:06.087Z,78.10
2023-01-18T08:29:33.833Z,78.00
2023-01-18T08:32:02.637Z,78.10
2023-01-18T08:34:31.529Z,78.10
2023-01-18T08:37:00.928Z,78.30
2023-01-18T08:39:30.627Z,78.00
2023-01-18T08:41:58.843Z,78.30
2023-01-18T08:44:26.115Z,78.50
2023-01-18T08:46:53.471Z,78.30
2023-01-18T08:49:21.130Z,78.10
2023-01-18T08:51:49.983Z,78.40
2023-01-18T08:54:19.055Z,78.20
2023-01-18T08:56:47.980Z,78.20
2023-01-18T08:59:15.638Z,78.50
2023-01-18T09:01:42.960Z,78.40
2023-01-18T09:04:10.279Z,78.70
2023-01-18T09:06:37.929Z,78.90
2023-01-18T09:09:06.465Z,79.10
2023-01-18T09:16:30.889Z,78.30
2023-01-18T09:19:00.505Z,77.90
2023-01-18T09:21:33.422Z,78.10
2023-01-18T09:53:25.671Z,74.80
2023-01-18T10:15:32.052Z,71.90
2023-01-18T10:18:06.461Z,72.10
2023-01-18T10:20:59.937Z,72.00
2023-01-18T10:23:47.208Z,72.00
2023-01-18T10:26:33.644Z,71.20
2023-01-18T11:53:57.201Z,67.30
2023-01-18T11:56:31.893Z,67.80
2023-01-18T11:59:07.900Z,68.80
2023-01-18T12:01:59.553Z,67.50
2023-01-18T12:05:03.382Z,68.30
2023-01-18T14:50:42.793Z,71.40
2023-01-18T14:54:32.567Z,71.00
2023-01-18T14:57:03.761Z,71.10
2023-01-18T15:00:58.850Z,71.70
2023-01-18T15:08:30.106Z,72.20
2023-01-18T15:19:57.309Z,73.00
2023-01-18T15:23:12.991Z,73.20
2023-01-18T15:25:41.774Z,73.60
2023-01-18T15:28:23.651Z,73.80
2023-01-18T15:30:59.072Z,73.80
2023-01-18T15:34:22.201Z,73.80
2023-01-18T15:36:52.243Z,74.00
2023-01-18T15:39:20.479Z,74.50
2023-01-18T15:41:53.215Z,74.40
2023-01-18T15:44:52.804Z,74.10
2023-01-18T15:47:56.436Z,74.30
2023-01-18T15:50:50.681Z,74.10
2023-01-18T15:53:24.739Z,74.10
2023-01-18T15:56:03.419Z,73.80
2023-01-18T15:58:41.641Z,74.30
2023-01-18T16:01:25.476Z,74.00
2023-01-18T16:19:44.294Z,74.40
2023-01-18T16:22:37.281Z,74.40
2023-01-18T16:25:21.224Z,74.60
2023-01-18T16:27:57.146Z,74.40
2023-01-18T16:30:35.902Z,73.90
2023-01-18T16:33:09.759Z,74.40
2023-01-18T16:35:39.744Z,74.80
2023-01-18T16:38:19.142Z,75.20
2023-01-18T16:40:49.391Z,75.20
2023-01-18T16:43:23.931Z,74.90
2023-01-18T16:45:54.614Z,74.80
2023-01-18T16:48:27.590Z,74.60
2023-01-18T16:50:57.001Z,74.70
2023-01-18T16:53:25.440Z,74.30
2023-01-18T16:55:57.493Z,74.90
2023-01-18T16:58:26.883Z,74.80
2023-01-18T17:01:10.165Z,75.00
2023-01-18T17:08:49.769Z,75.10
2023-01-18T17:11:18.138Z,75.60
2023-01-18T17:13:47.912Z,75.20
2023-01-18T17:16:20.802Z,75.60
2023-01-18T17:18:49.140Z,75.80
2023-01-18T17:21:16.746Z,76.00
2023-01-18T17:23:45.256Z,75.40
2023-01-18T17:26:15.698Z,76.30
2023-01-18T17:28:44.034Z,76.40
2023-01-18T17:31:12.546Z,76.50
2023-01-18T17:33:43.990Z,76.30
2023-01-18T17:36:12.241Z,76.60
2023-01-18T17:38:41.250Z,77.10
2023-01-18T17:41:26.535Z,77.00
2023-01-18T17:43:55.157Z,77.00
2023-01-18T17:46:23.300Z,76.90
2023-01-18T17:48:57.356Z,76.80
2023-01-18T17:51:24.785Z,77.00
2023-01-18T17:54:02.144Z,77.40
2023-01-18T17:56:36.897Z,77.50
2023-01-18T17:59:09.677Z,77.60
2023-01-18T18:01:37.633Z,77.90
2023-01-18T18:04:09.861Z,78.30
2023-01-18T18:06:46.041Z,78.60
2023-01-18T18:09:17.292Z,79.20
2023-01-18T18:11:45.844Z,79.40
2023-01-18T18:14:14.234Z,78.90
2023-01-18T18:16:44.244Z,79.30
2023-01-18T18:19:15.363Z,79.80
2023-01-18T18:21:44.099Z,79.60
2023-01-18T18:24:12.194Z,79.40
2023-01-18T18:26:40.597Z,79.40
2023-01-18T18:29:08.506Z,79.50
2023-01-18T18:31:38.509Z,79.20
2023-01-18T18:34:08.200Z,79.80
2023-01-18T18:36:35.829Z,79.90
2023-01-18T18:39:04.973Z,80.20
2023-01-18T18:41:32.811Z,80.30
2023-01-18T18:44:00.814Z,80.30
2023-01-18T18:46:28.733Z,80.60
2023-01-18T18:48:56.845Z,80.60
2023-01-18T18:51:25.289Z,80.60
2023-01-18T18:53:52.721Z,80.80
2023-01-18T18:56:20.775Z,80.60
2023-01-18T18:58:49.289Z,80.90
2023-01-18T19:01:25.875Z,80.70
2023-01-18T19:03:54.411Z,80.80
2023-01-18T19:06:23.496Z,80.60
2023-01-18T19:08:51.508Z,81.20
2023-01-18T19:11:19.305Z,80.90
2023-01-18T19:13:49.433Z,81.10
2023-01-18T19:16:17.264Z,81.50
2023-01-18T19:18:45.004Z,81.70
2023-01-18T19:21:12.326Z,81.70
2023-01-18T19:23:39.770Z,81.60
2023-01-18T19:26:07.604Z,81.50
2023-01-18T19:28:36.567Z,81.70
2023-01-18T19:31:05.837Z,81.70
2023-01-18T19:33:33.741Z,81.60
2023-01-18T19:36:13.422Z,81.50
2023-01-18T19:38:47.281Z,81.40
2023-01-18T19:41:17.468Z,81.60
2023-01-18T19:43:48.667Z,81.50
2023-01-18T19:46:18.048Z,81.70
2023-01-18T19:48:45.674Z,81.80
2023-01-18T19:51:22.092Z,81.70
2023-01-18T19:53:52.535Z,82.20
2023-01-18T19:56:20.829Z,81.80
2023-01-18T19:58:49.847Z,81.90
2023-01-18T20:01:34.754Z,81.30
2023-01-18T20:04:04.718Z,82.00
2023-01-18T20:06:33.498Z,81.90
2023-01-18T20:09:04.035Z,82.10
2023-01-18T20:11:32.825Z,82.20
2023-01-18T20:14:00.250Z,82.40
2023-01-18T20:16:27.694Z,82.60
2023-01-18T20:18:55.151Z,82.60
2023-01-18T20:21:22.538Z,82.90
2023-01-18T20:23:49.919Z,83.00
2023-01-18T20:26:34.850Z,83.40
2023-01-18T20:29:06.552Z,83.50
2023-01-18T20:31:37.043Z,83.40
2023-01-18T20:34:05.231Z,83.60
2023-01-18T20:36:34.962Z,83.50
2023-01-18T20:39:04.126Z,83.40
2023-01-18T20:41:31.715Z,83.10
2023-01-18T20:43:59.296Z,83.20
2023-01-18T20:46:26.732Z,83.30
2023-01-18T20:48:54.405Z,83.60
2023-01-18T20:51:22.016Z,83.70
2023-01-18T20:53:49.635Z,83.90
2023-01-18T20:56:28.824Z,83.70
2023-01-18T20:58:57.994Z,83.70
2023-01-18T21:01:32.524Z,83.80
2023-01-18T21:04:02.679Z,84.00
2023-01-18T21:06:31.361Z,84.10
2023-01-18T21:09:00.952Z,84.00
2023-01-18T21:11:28.523Z,83.80
2023-01-18T21:13:58.864Z,83.90
2023-01-18T21:16:27.663Z,84.10
2023-01-18T21:19:08.991Z,84.20
2023-01-18T21:24:27.666Z,83.80
2023-01-18T21:31:10.462Z,83.70
2023-01-18T21:33:40.047Z,83.60
2023-01-18T21:36:11.976Z,83.40
2023-01-18T21:38:42.808Z,83.60
2023-01-18T21:41:37.188Z,83.40
2023-01-18T21:44:32.900Z,83.50
2023-01-18T21:52:26.873Z,83.20
2023-01-18T21:54:54.403Z,83.30
2023-01-18T21:57:22.225Z,83.60
2023-01-18T21:59:49.807Z,83.60
2023-01-18T22:02:17.368Z,84.00
2023-01-18T22:04:59.190Z,84.00
2023-01-18T22:07:28.251Z,84.30
2023-01-18T22:10:06.207Z,84.50
2023-01-18T22:12:39.219Z,84.60
2023-01-18T22:30:58.976Z,85.30
2023-01-18T22:33:27.523Z,85.00
2023-01-18T22:35:59.988Z,85.20
2023-01-18T22:38:28.769Z,85.40
2023-01-18T22:41:14.418Z,85.30
2023-01-18T22:43:43.176Z,85.50
2023-01-18T22:46:15.888Z,85.50
2023-01-18T23:54:19.842Z,86.10
2023-01-18T23:56:54.290Z,86.30
2023-01-18T23:59:22.415Z,86.00
